createdAt,value
2022-09-15T00:02:43.772Z,97472.23
2022-09-15T00:05:57.615Z,97461.95
2022-09-15T00:09:09.813Z,97452.08
2022-09-15T00:12:21.852Z,97447.58
2022-09-15T00:15:33.512Z,97436.02
2022-09-15T00:18:46.584Z,97431.48
2022-09-15T00:21:58.225Z,97416.64
2022-09-15T00:25:10.239Z,97407.77
2022-09-15T00:28:24.963Z,97391.07
2022-09-15T00:31:37.998Z,97384.69
2022-09-15T00:34:49.657Z,97386.13
2022-09-15T00:38:01.211Z,97388.58
2022-09-15T00:41:15.367Z,97394.36
2022-09-15T00:44:55.568Z,97388.58
2022-09-15T00:48:08.257Z,97378.68
2022-09-15T00:51:23.571Z,97372.48
2022-09-15T00:54:40.058Z,97372.27
2022-09-15T00:57:55.744Z,97365.47
2022-09-15T01:01:11.002Z,97365.53
2022-09-15T01:04:23.825Z,97360.17
2022-09-15T01:07:40.419Z,97354.39
2022-09-15T01:10:53.501Z,97373.36
2022-09-15T01:14:05.878Z,97355.80
2022-09-15T01:17:23.126Z,97348.84
2022-09-15T01:21:02.598Z,97337.52
2022-09-15T01:24:50.254Z,97337.09
2022-09-15T01:28:24.971Z,97338.16
2022-09-15T01:31:45.190Z,97340.23
2022-09-15T01:35:03.776Z,97342.30
2022-09-15T01:38:20.194Z,97335.92
2022-09-15T01:41:38.339Z,97339.59
2022-09-15T01:44:55.146Z,97330.07
2022-09-15T01:48:09.901Z,97330.00
2022-09-15T01:51:22.346Z,97332.08
2022-09-15T01:54:36.852Z,97320.97
2022-09-15T01:57:49.051Z,97323.43
2022-09-15T02:01:06.480Z,97321.58
2022-09-15T02:04:25.018Z,97313.98
2022-09-15T02:07:44.866Z,97315.98
2022-09-15T02:11:04.819Z,97321.77
2022-09-15T02:14:23.061Z,97317.65
2022-09-15T02:17:39.004Z,97322.41
2022-09-15T02:20:58.117Z,97327.92
2022-09-15T02:24:14.840Z,97321.31
2022-09-15T02:27:29.854Z,97324.59
2022-09-15T02:30:44.900Z,97317.16
2022-09-15T02:34:01.641Z,97310.96
2022-09-15T02:37:15.256Z,97312.02
2022-09-15T02:40:27.920Z,97312.70
2022-09-15T02:43:39.603Z,97304.47
2022-09-15T02:46:51.458Z,97304.02
2022-09-15T02:50:03.331Z,97308.55
2022-09-15T02:53:15.396Z,97304.84
2022-09-15T02:56:27.158Z,97300.31
2022-09-15T02:59:49.754Z,97306.70
2022-09-15T03:03:02.528Z,97299.48
2022-09-15T03:06:21.632Z,97293.28
2022-09-15T03:09:34.127Z,97291.44
2022-09-15T03:12:49.379Z,97289.77
2022-09-15T03:16:01.064Z,97289.17
2022-09-15T03:19:12.926Z,97296.80
2022-09-15T03:22:24.912Z,97307.52
2022-09-15T03:25:36.481Z,97299.48
2022-09-15T03:28:48.597Z,97290.38
2022-09-15T03:32:00.415Z,97296.15
2022-09-15T03:35:13.658Z,97295.92
2022-09-15T03:38:27.014Z,97286.67
2022-09-15T03:41:38.581Z,97292.87
2022-09-15T03:44:50.174Z,97289.36
2022-09-15T03:48:01.925Z,97285.47
2022-09-15T03:51:15.510Z,97277.42
2022-09-15T03:54:27.561Z,97283.39
2022-09-15T03:57:39.257Z,97274.29
2022-09-15T04:00:51.704Z,97275.77
2022-09-15T04:04:04.056Z,97265.04
2022-09-15T04:07:15.830Z,97268.55
2022-09-15T04:10:28.191Z,97265.87
2022-09-15T04:13:40.368Z,97264.62
2022-09-15T04:16:52.319Z,97272.66
2022-09-15T04:20:04.193Z,97262.96
2022-09-15T04:23:16.704Z,97262.77
2022-09-15T04:26:32.071Z,97262.77
2022-09-15T04:29:43.845Z,97262.91
2022-09-15T04:32:55.380Z,97262.69
2022-09-15T04:36:09.808Z,97256.06
2022-09-15T04:39:21.471Z,97255.84
2022-09-15T04:42:33.402Z,97251.91
2022-09-15T04:45:45.013Z,97244.46
2022-09-15T04:48:57.027Z,97238.07
2022-09-15T04:52:09.814Z,97248.71
2022-09-15T04:55:21.984Z,97252.17
2022-09-15T04:58:33.542Z,97254.98
2022-09-15T05:01:45.138Z,97249.63
2022-09-15T05:04:57.065Z,97252.91
2022-09-15T05:08:09.620Z,97253.73
2022-09-15T05:11:22.653Z,97252.48
2022-09-15T05:14:34.362Z,97248.73
2022-09-15T05:17:45.943Z,97254.88
2022-09-15T05:21:03.768Z,97251.95
2022-09-15T05:24:15.735Z,97257.69
2022-09-15T05:27:28.280Z,97246.06
2022-09-15T05:30:44.077Z,97244.38
2022-09-15T05:33:55.318Z,97242.45
2022-09-15T05:37:07.266Z,97242.58
2022-09-15T05:40:21.419Z,97252.50
2022-09-15T05:43:36.233Z,97245.86
2022-09-15T05:46:47.955Z,97236.55
2022-09-15T05:49:59.741Z,97236.91
2022-09-15T05:53:12.039Z,97244.50
2022-09-15T05:56:24.905Z,97242.20
2022-09-15T05:59:39.078Z,97238.62
2022-09-15T06:02:50.922Z,97240.84
2022-09-15T06:06:09.607Z,97246.37
2022-09-15T06:09:22.148Z,97243.80
2022-09-15T06:12:34.499Z,97245.34
2022-09-15T06:15:46.348Z,97240.57
2022-09-15T06:18:59.825Z,97244.00
2022-09-15T06:22:11.582Z,97244.36
2022-09-15T06:25:23.428Z,97243.88
2022-09-15T06:28:35.033Z,97243.45
2022-09-15T06:31:46.872Z,97246.72
2022-09-15T06:34:58.600Z,97249.65
2022-09-15T06:38:10.245Z,97247.31
2022-09-15T06:41:22.744Z,97252.02
2022-09-15T06:44:34.362Z,97258.78
2022-09-15T06:47:46.115Z,97257.74
2022-09-15T06:51:02.513Z,97271.77
2022-09-15T06:54:16.428Z,97275.97
2022-09-15T06:57:29.266Z,97287.66
2022-09-15T07:00:40.978Z,97297.59
2022-09-15T07:03:52.801Z,97290.00
2022-09-15T07:07:04.623Z,97299.09
2022-09-15T07:10:17.148Z,97303.64
2022-09-15T07:13:28.993Z,97316.88
2022-09-15T07:16:40.811Z,97335.11
2022-09-15T07:19:52.465Z,97334.04
2022-09-15T07:23:04.252Z,97335.11
2022-09-15T07:26:19.461Z,97338.23
2022-09-15T07:29:34.764Z,97352.81
2022-09-15T07:32:45.622Z,97354.23
2022-09-15T07:35:57.266Z,97356.73
2022-09-15T07:39:11.021Z,97363.05
2022-09-15T07:42:22.624Z,97371.05
2022-09-15T07:45:35.474Z,97379.23
2022-09-15T07:48:49.887Z,97383.34
2022-09-15T07:52:01.651Z,97391.65
2022-09-15T07:55:15.089Z,97406.36
2022-09-15T07:58:27.346Z,97426.02
2022-09-15T08:01:39.806Z,97437.48
2022-09-15T08:04:53.151Z,97466.23
2022-09-15T08:08:05.154Z,97471.34
2022-09-15T08:11:19.582Z,97478.30
2022-09-15T08:14:32.936Z,97492.13
2022-09-15T08:17:44.563Z,97498.39
2022-09-15T08:20:56.314Z,97504.62
2022-09-15T08:24:08.628Z,97506.69
2022-09-15T08:27:20.330Z,97518.26
2022-09-15T08:30:32.408Z,97533.11
2022-09-15T08:33:45.890Z,97537.23
2022-09-15T08:36:57.875Z,97545.09
2022-09-15T08:40:13.172Z,97550.88
2022-09-15T08:43:29.710Z,97550.05
2022-09-15T08:46:46.992Z,97559.53
2022-09-15T08:50:05.838Z,97553.30
2022-09-15T08:53:21.484Z,97546.70
2022-09-15T08:56:35.194Z,97553.11
2022-09-15T08:59:46.920Z,97553.73
2022-09-15T09:03:29.092Z,97567.91
2022-09-15T09:06:47.544Z,97573.42
2022-09-15T09:10:03.634Z,97573.84
2022-09-15T09:13:29.983Z,97585.73
2022-09-15T09:16:57.609Z,97600.11
2022-09-15T09:20:31.963Z,97596.35
2022-09-15T09:23:50.393Z,97597.70
2022-09-15T09:27:02.782Z,97604.81
2022-09-15T09:30:22.881Z,97607.84
2022-09-15T09:33:40.260Z,97611.05
2022-09-15T09:36:57.315Z,97615.97
2022-09-15T09:40:11.129Z,97615.17
2022-09-15T09:43:23.174Z,97612.58
2022-09-15T09:46:35.163Z,97618.92
2022-09-15T09:49:51.459Z,97622.86
2022-09-15T09:53:03.142Z,97622.03
2022-09-15T09:56:29.090Z,97627.78
2022-09-15T09:59:46.974Z,97624.66
2022-09-15T10:02:58.548Z,97624.16
2022-09-15T10:06:15.751Z,97618.12
2022-09-15T10:09:32.610Z,97618.92
2022-09-15T10:12:46.751Z,97628.33
2022-09-15T10:16:05.007Z,97627.86
2022-09-15T10:19:20.514Z,97631.22
2022-09-15T10:22:37.014Z,97632.42
2022-09-15T10:25:59.116Z,97622.48
2022-09-15T10:29:21.820Z,97628.98
2022-09-15T10:32:36.113Z,97625.96
2022-09-15T10:35:50.719Z,97625.98
2022-09-15T10:39:08.253Z,97619.90
2022-09-15T10:42:36.623Z,97622.68
2022-09-15T10:45:53.293Z,97619.46
2022-09-15T10:49:18.416Z,97610.32
2022-09-15T10:52:37.620Z,97614.76
2022-09-15T10:55:58.956Z,97613.06
2022-09-15T10:59:29.228Z,97598.23
2022-09-15T11:03:22.374Z,97607.50
2022-09-15T11:06:38.530Z,97604.06
2022-09-15T11:09:54.537Z,97603.23
2022-09-15T11:13:14.560Z,97594.41
2022-09-15T11:16:38.820Z,97587.19
2022-09-15T11:20:25.355Z,97601.09
2022-09-15T11:23:42.027Z,97604.70
2022-09-15T11:26:57.831Z,97604.42
2022-09-15T11:30:20.419Z,97594.84
2022-09-15T11:33:36.780Z,97593.34
2022-09-15T11:36:54.011Z,97584.81
2022-09-15T11:40:11.131Z,97580.47
2022-09-15T11:43:28.729Z,97579.75
2022-09-15T11:46:51.728Z,97575.55
2022-09-15T11:50:09.898Z,97562.80
2022-09-15T11:53:29.681Z,97568.27
2022-09-15T11:56:46.477Z,97564.77
2022-09-15T11:59:59.586Z,97564.92
2022-09-15T12:03:21.592Z,97561.65
2022-09-15T12:06:43.307Z,97562.05
2022-09-15T12:09:52.946Z,97552.54
2022-09-15T12:13:06.738Z,97554.31
2022-09-15T12:16:20.663Z,97562.96
2022-09-15T12:19:51.863Z,97550.41
2022-09-15T12:23:09.158Z,97546.16
2022-09-15T12:26:27.035Z,97546.39
2022-09-15T12:29:45.687Z,97542.34
2022-09-15T12:33:01.620Z,97537.05
2022-09-15T12:36:41.564Z,97543.50
2022-09-15T12:39:54.579Z,97553.09
2022-09-15T12:43:08.412Z,97551.39
2022-09-15T12:46:23.516Z,97545.89
2022-09-15T12:49:42.041Z,97541.69
2022-09-15T12:52:58.958Z,97543.55
2022-09-15T12:56:13.558Z,97547.75
2022-09-15T12:59:29.461Z,97529.55
2022-09-15T13:02:54.227Z,97518.66
2022-09-15T13:06:24.750Z,97531.13
2022-09-15T13:09:40.473Z,97527.48
2022-09-15T13:12:58.028Z,97524.41
2022-09-15T13:16:12.459Z,97521.59
2022-09-15T13:19:29.996Z,97527.88
2022-09-15T13:22:47.861Z,97522.50
2022-09-15T13:26:03.139Z,97518.63
2022-09-15T13:29:20.243Z,97514.42
2022-09-15T13:32:46.564Z,97513.72
2022-09-15T13:36:17.277Z,97516.64
2022-09-15T13:39:53.060Z,97513.08
2022-09-15T13:43:37.479Z,97509.20
2022-09-15T13:47:00.028Z,97513.63
2022-09-15T13:50:21.367Z,97519.25
2022-09-15T13:53:51.954Z,97511.02
2022-09-15T13:57:07.764Z,97510.22
2022-09-15T14:00:25.835Z,97510.11
2022-09-15T14:03:48.321Z,97490.09
2022-09-15T14:07:03.879Z,97491.98
2022-09-15T14:10:28.095Z,97502.63
2022-09-15T14:13:42.597Z,97494.13
2022-09-15T14:16:56.641Z,97487.39
2022-09-15T14:20:20.614Z,97480.16
2022-09-15T14:23:32.673Z,97487.11
2022-09-15T14:26:44.681Z,97480.54
2022-09-15T14:29:58.455Z,97483.54
2022-09-15T14:33:10.666Z,97486.09
2022-09-15T14:36:29.346Z,97479.06
2022-09-15T14:39:43.300Z,97481.68
2022-09-15T14:42:55.035Z,97485.03
2022-09-15T14:46:20.879Z,97481.62
2022-09-15T14:52:52.557Z,97473.63
2022-09-15T14:56:09.726Z,97483.28
2022-09-15T14:59:27.783Z,97489.69
2022-09-15T15:02:50.187Z,97480.27
2022-09-15T15:06:28.399Z,97480.32
2022-09-15T15:09:25.917Z,97481.67
2022-09-15T15:12:41.761Z,97475.47
2022-09-15T15:15:54.399Z,97476.66
2022-09-15T15:19:06.328Z,97465.75
2022-09-15T15:22:26.885Z,97457.78
2022-09-15T15:25:39.219Z,97472.18
2022-09-15T15:28:51.054Z,97465.14
2022-09-15T15:32:15.106Z,97451.11
2022-09-15T15:35:28.187Z,97457.97
2022-09-15T15:38:47.533Z,97460.23
2022-09-15T15:42:08.729Z,97464.04
2022-09-15T15:45:31.981Z,97457.09
2022-09-15T15:48:44.757Z,97450.52
2022-09-15T15:51:59.091Z,97445.75
2022-09-15T15:55:18.639Z,97457.75
2022-09-15T15:58:30.339Z,97455.66
2022-09-15T16:01:42.153Z,97455.89
2022-09-15T16:04:54.024Z,97450.95
2022-09-15T16:08:10.731Z,97450.58
2022-09-15T16:11:21.788Z,97456.59
2022-09-15T16:14:33.417Z,97464.66
2022-09-15T16:17:47.006Z,97465.11
2022-09-15T16:20:59.822Z,97469.88
2022-09-15T16:24:16.095Z,97476.28
2022-09-15T16:27:29.941Z,97463.50
2022-09-15T16:30:41.982Z,97469.93
2022-09-15T16:33:54.042Z,97480.52
2022-09-15T16:37:06.226Z,97486.69
2022-09-15T16:40:18.420Z,97492.29
2022-09-15T16:43:30.692Z,97489.83
2022-09-15T16:46:42.535Z,97503.07
2022-09-15T16:49:54.737Z,97494.64
2022-09-15T16:53:06.860Z,97493.80
2022-09-15T16:56:21.513Z,97505.00
2022-09-15T16:59:33.545Z,97500.88
2022-09-15T17:02:45.381Z,97505.65
2022-09-15T17:05:59.730Z,97491.20
2022-09-15T17:09:11.872Z,97493.89
2022-09-15T17:12:24.488Z,97491.63
2022-09-15T17:15:40.008Z,97489.38
2022-09-15T17:18:51.911Z,97494.14
2022-09-15T17:22:03.676Z,97485.72
2022-09-15T17:25:32.111Z,97496.23
2022-09-15T17:28:44.689Z,97496.83
2022-09-15T17:31:56.392Z,97501.36
2022-09-15T17:35:10.227Z,97500.77
2022-09-15T17:38:23.076Z,97508.05
2022-09-15T17:41:37.223Z,97511.81
2022-09-15T17:44:48.941Z,97517.42
2022-09-15T17:48:01.006Z,97520.30
2022-09-15T17:51:14.271Z,97528.80
2022-09-15T17:54:27.052Z,97530.27
2022-09-15T17:57:38.813Z,97528.42
2022-09-15T18:00:52.637Z,97537.93
2022-09-15T18:04:04.609Z,97528.89
2022-09-15T18:07:17.717Z,97544.53
2022-09-15T18:10:33.045Z,97555.31
2022-09-15T18:13:47.747Z,97556.11
2022-09-15T18:16:59.388Z,97562.31
2022-09-15T18:20:14.118Z,97572.24
2022-09-15T18:23:29.867Z,97581.09
2022-09-15T18:26:41.644Z,97576.38
2022-09-15T18:29:54.144Z,97575.55
2022-09-15T18:33:06.379Z,97575.98
2022-09-15T18:36:19.033Z,97568.17
2022-09-15T18:39:31.784Z,97565.50
2022-09-15T18:42:49.077Z,97560.55
2022-09-15T18:46:05.596Z,97576.41
2022-09-15T18:49:17.628Z,97573.95
2022-09-15T18:52:29.484Z,97574.38
2022-09-15T18:55:41.504Z,97569.84
2022-09-15T18:58:53.716Z,97577.29
2022-09-15T19:02:05.709Z,97586.15
2022-09-15T19:05:19.415Z,97582.84
2022-09-15T19:08:31.309Z,97582.44
2022-09-15T19:11:42.972Z,97568.20
2022-09-15T19:14:54.921Z,97575.63
2022-09-15T19:18:06.679Z,97579.92
2022-09-15T19:21:20.412Z,97574.38
2022-09-15T19:24:34.119Z,97575.19
2022-09-15T19:27:48.005Z,97582.80
2022-09-15T19:31:01.110Z,97596.16
2022-09-15T19:34:13.010Z,97595.54
2022-09-15T19:37:27.528Z,97603.95
2022-09-15T19:40:39.609Z,97600.66
2022-09-15T19:43:51.396Z,97615.88
2022-09-15T19:47:03.497Z,97632.31
2022-09-15T19:50:17.111Z,97626.97
2022-09-15T19:53:29.183Z,97629.02
2022-09-15T19:56:42.599Z,97625.53
2022-09-15T19:59:54.792Z,97622.41
2022-09-15T20:03:08.201Z,97636.00
2022-09-15T20:06:21.015Z,97634.36
2022-09-15T20:09:35.797Z,97645.23
2022-09-15T20:12:48.832Z,97643.81
2022-09-15T20:16:06.923Z,97642.98
2022-09-15T20:19:19.710Z,97635.95
2022-09-15T20:22:32.461Z,97631.83
2022-09-15T20:25:44.968Z,97628.98
2022-09-15T20:28:59.224Z,97632.66
2022-09-15T20:32:17.408Z,97626.27
2022-09-15T20:35:30.226Z,97639.26
2022-09-15T20:38:48.467Z,97648.29
2022-09-15T20:42:01.072Z,97654.26
2022-09-15T20:45:16.854Z,97658.98
2022-09-15T20:48:31.403Z,97658.56
2022-09-15T20:51:44.136Z,97660.41
2022-09-15T20:54:57.256Z,97662.08
2022-09-15T20:58:18.889Z,97657.73
2022-09-15T21:01:34.569Z,97670.48
2022-09-15T21:04:47.500Z,97677.07
2022-09-15T21:08:00.135Z,97684.48
2022-09-15T21:11:15.971Z,97686.09
2022-09-15T21:14:28.610Z,97686.51
2022-09-15T21:17:41.237Z,97686.51
2022-09-15T21:20:59.707Z,97682.59
2022-09-15T21:24:14.567Z,97686.47
2022-09-15T21:27:33.499Z,97686.26
2022-09-15T21:30:46.255Z,97688.73
2022-09-15T21:34:01.020Z,97691.81
2022-09-15T21:37:14.095Z,97706.19
2022-09-15T21:40:26.551Z,97701.67
2022-09-15T21:43:41.330Z,97696.73
2022-09-15T21:46:53.737Z,97712.57
2022-09-15T21:50:06.272Z,97718.92
2022-09-15T21:53:19.477Z,97719.13
2022-09-15T21:56:34.298Z,97722.64
2022-09-15T21:59:47.068Z,97727.35
2022-09-15T22:03:00.354Z,97731.44
2022-09-15T22:06:13.486Z,97730.17
2022-09-15T22:09:26.861Z,97732.84
2022-09-15T22:12:39.297Z,97741.44
2022-09-15T22:15:51.707Z,97738.74
2022-09-15T22:19:04.138Z,97742.36
2022-09-15T22:22:16.750Z,97738.48
2022-09-15T22:25:29.213Z,97746.64
2022-09-15T22:28:42.052Z,97736.09
2022-09-15T22:31:54.722Z,97755.42
2022-09-15T22:35:07.240Z,97754.35
2022-09-15T22:38:19.784Z,97759.63
2022-09-15T22:41:32.227Z,97768.67
2022-09-15T22:44:45.051Z,97764.33
2022-09-15T22:47:57.458Z,97756.72
2022-09-15T22:51:11.010Z,97771.03
2022-09-15T22:54:23.716Z,97773.20
2022-09-15T22:57:38.130Z,97778.11
2022-09-15T23:00:51.385Z,97778.70
2022-09-15T23:04:05.714Z,97773.52
2022-09-15T23:07:17.417Z,97785.80
2022-09-15T23:10:29.652Z,97782.13
2022-09-15T23:13:41.615Z,97782.28
2022-09-15T23:16:53.235Z,97787.83
2022-09-15T23:20:05.584Z,97781.48
2022-09-15T23:23:17.304Z,97772.44
2022-09-15T23:26:30.465Z,97773.64
2022-09-15T23:29:42.393Z,97784.91
2022-09-15T23:32:54.087Z,97781.77
2022-09-15T23:36:09.030Z,97771.48
2022-09-15T23:39:20.925Z,97774.34
2022-09-15T23:42:32.796Z,97783.74
2022-09-15T23:45:44.785Z,97778.96
2022-09-15T23:48:56.491Z,97774.81
2022-09-15T23:52:08.765Z,97782.18
2022-09-15T23:55:20.531Z,97778.23
2022-09-15T23:58:32.551Z,97790.94
